^^
Your Local Weather - Clay, NY Station Historical Data
Daily Summary for March 17, 2017 Units:  English    Metric   Both
« Previous Day
Next Day »
Daily Weekly Monthly Yearly Custom
  High: Low: Average:
Temperature: 40.8 °F 19.1 °F 29 °F
Dew Point: 20.9 °F 7.8 °F 14.2 °F
Humidity: 78% 27% 56%
Wind Speed: 5.0mph 0.0mph 1.4mph
Wind Gust: 9.0mph - -
Wind- - WNW
Pressure: 30.25 in 30.11 in -
Precipitation: 0.24 in    
Historical Graphs
 
 
Tabular Data for March 17, 2017
Time Temperature Dew Point Pressure Wind Wind Speed Wind Gust Humidity Rainfall Rate (Hourly) solar
00:04 26.9 °F 16.0 °F 30.11 in WNW 2.0 mph 3.0 mph 63% 0.00 in 0 W/m2
00:10 26.8 °F 15.9 °F 30.11 in NNW 2.0 mph 2.0 mph 63% 0.00 in 0 W/m2
00:16 26.7 °F 15.8 °F 30.11 in WNW 2.0 mph 2.0 mph 63% 0.00 in 0 W/m2
00:22 26.7 °F 16.1 °F 30.11 in WNW 2.0 mph 2.0 mph 64% 0.00 in 0 W/m2
00:28 26.8 °F 15.9 °F 30.11 in WNW 2.0 mph 2.0 mph 63% 0.00 in 0 W/m2
00:34 26.7 °F 16.1 °F 30.11 in NW 2.0 mph 3.0 mph 64% 0.00 in 0 W/m2
00:40 26.9 °F 16.3 °F 30.11 in NW 3.0 mph 3.0 mph 64% 0.00 in 0 W/m2
00:46 26.8 °F 16.2 °F 30.11 in NW 2.0 mph 3.0 mph 64% 0.00 in 0 W/m2
00:52 26.6 °F 16.1 °F 30.11 in NW 2.0 mph 2.0 mph 64% 0.00 in 0 W/m2
00:58 26.5 °F 16.0 °F 30.12 in NW 2.0 mph 3.0 mph 64% 0.00 in 0 W/m2
01:04 26.6 °F 16.1 °F 30.12 in NW 2.0 mph 2.0 mph 64% 0.00 in 0 W/m2
01:10 26.6 °F 16.1 °F 30.12 in WNW 2.0 mph 2.0 mph 64% 0.00 in 0 W/m2
01:16 26.5 °F 16.0 °F 30.12 in WNW 1.0 mph 2.0 mph 64% 0.00 in 0 W/m2
01:22 26.2 °F 16.0 °F 30.13 in WNW 1.0 mph 1.0 mph 65% 0.00 in 0 W/m2
01:28 26.1 °F 15.9 °F 30.13 in WNW 1.0 mph 4.0 mph 65% 0.00 in 0 W/m2
01:34 26.0 °F 15.8 °F 30.13 in NW 1.0 mph 2.0 mph 65% 0.00 in 0 W/m2
01:40 25.7 °F 15.6 °F 30.13 in NW 1.0 mph 1.0 mph 65% 0.00 in 0 W/m2
01:46 25.5 °F 15.7 °F 30.13 in NW 1.0 mph 1.0 mph 66% 0.00 in 0 W/m2
01:52 25.4 °F 15.6 °F 30.13 in Calm   1.0 mph 66% 0.00 in 0 W/m2
01:58 25.3 °F 15.9 °F 30.13 in NW 1.0 mph 2.0 mph 67% 0.00 in 0 W/m2
02:04 25.2 °F 15.4 °F 30.13 in NW 1.0 mph 2.0 mph 66% 0.00 in 0 W/m2
02:10 25.1 °F 15.7 °F 30.13 in NW 1.0 mph 3.0 mph 67% 0.00 in 0 W/m2
02:16 25.1 °F 15.7 °F 30.13 in Calm   3.0 mph 67% 0.00 in 0 W/m2
02:22 24.8 °F 15.4 °F 30.14 in Calm   2.0 mph 67% 0.00 in 0 W/m2
02:28 24.5 °F 15.1 °F 30.14 in Calm   2.0 mph 67% 0.00 in 0 W/m2
02:34 24.2 °F 15.2 °F 30.14 in Calm     68% 0.00 in 0 W/m2
02:40 23.6 °F 14.9 °F 30.14 in Calm     69% 0.00 in 0 W/m2
02:46 23.3 °F 15.0 °F 30.14 in Calm     70% 0.00 in 0 W/m2
02:52 22.8 °F 14.1 °F 30.14 in Calm     69% 0.00 in 0 W/m2
02:58 22.3 °F 14.3 °F 30.14 in Calm     71% 0.00 in 0 W/m2
03:04 22.2 °F 14.2 °F 30.14 in Calm     71% 0.00 in 0 W/m2
03:10 21.9 °F 14.3 °F 30.14 in Calm     72% 0.00 in 0 W/m2
03:16 21.5 °F 13.9 °F 30.14 in Calm     72% 0.00 in 0 W/m2
03:22 21.4 °F 14.1 °F 30.14 in Calm     73% 0.00 in 0 W/m2
03:28 21.9 °F 14.6 °F 30.14 in West 1.0 mph 3.0 mph 73% 0.00 in 0 W/m2
03:34 22.2 °F 14.2 °F 30.14 in West 1.0 mph 1.0 mph 71% 0.00 in 0 W/m2
03:40 22.4 °F 14.4 °F 30.14 in Calm     71% 0.00 in 0 W/m2
03:42 22.4 °F 14.1 °F 30.14 in West 1.0 mph 2.0 mph 70% 0.00 in 0 W/m2
03:48 22.7 °F 14.1 °F 30.14 in West 1.0 mph 4.0 mph 69% 0.00 in 0 W/m2
03:54 22.7 °F 14.1 °F 30.14 in West 1.0 mph 3.0 mph 69% 0.00 in 0 W/m2
04:00 22.7 °F 14.1 °F 30.14 in West 1.0 mph 1.0 mph 69% 0.00 in 0 W/m2
04:06 22.8 °F 14.1 °F 30.14 in West 1.0 mph 3.0 mph 69% 0.00 in 0 W/m2
04:12 23.0 °F 14.3 °F 30.14 in WSW 2.0 mph 2.0 mph 69% 0.00 in 0 W/m2
04:18 23.0 °F 14.0 °F 30.14 in West 2.0 mph 3.0 mph 68% 0.00 in 0 W/m2
04:24 22.9 °F 14.2 °F 30.14 in WSW 1.0 mph 3.0 mph 69% 0.00 in 0 W/m2
04:30 22.7 °F 14.1 °F 30.15 in West 1.0 mph 5.0 mph 69% 0.00 in 0 W/m2
04:36 22.7 °F 14.4 °F 30.15 in WSW 1.0 mph 5.0 mph 70% 0.00 in 0 W/m2
04:42 22.6 °F 14.3 °F 30.16 in WSW 1.0 mph 4.0 mph 70% 0.00 in 0 W/m2
04:48 22.8 °F 14.5 °F 30.16 in WSW 2.0 mph 4.0 mph 70% 0.00 in 0 W/m2
04:54 23.1 °F 14.8 °F 30.16 in West 2.0 mph 2.0 mph 70% 0.00 in 0 W/m2
05:00 23.4 °F 15.1 °F 30.16 in WSW 2.0 mph 2.0 mph 70% 0.00 in 0 W/m2
05:06 23.7 °F 15.0 °F 30.16 in WSW 2.0 mph 5.0 mph 69% 0.00 in 0 W/m2
05:12 23.7 °F 14.7 °F 30.16 in West 1.0 mph 2.0 mph 68% 0.00 in 0 W/m2
05:18 23.6 °F 14.9 °F 30.16 in WSW 1.0 mph 2.0 mph 69% 0.00 in 0 W/m2
05:24 23.5 °F 14.8 °F 30.16 in WSW 1.0 mph 4.0 mph 69% 0.00 in 0 W/m2
05:30 23.4 °F 14.7 °F 30.17 in WSW 1.0 mph 1.0 mph 69% 0.00 in 0 W/m2
05:36 23.2 °F 14.9 °F 30.17 in West 1.0 mph 3.0 mph 70% 0.00 in 0 W/m2
05:42 22.9 °F 14.6 °F 30.17 in Calm   1.0 mph 70% 0.00 in 0 W/m2
05:48 22.8 °F 14.8 °F 30.17 in West 1.0 mph 3.0 mph 71% 0.00 in 0 W/m2
05:54 22.9 °F 14.9 °F 30.17 in West 1.0 mph 3.0 mph 71% 0.00 in 0 W/m2
06:00 22.7 °F 14.7 °F 30.17 in West 1.0 mph 1.0 mph 71% 0.00 in 0 W/m2
06:12 22.6 °F 14.9 °F 30.18 in WSW 1.0 mph 1.0 mph 72% 0.00 in 0 W/m2
06:18 22.5 °F 14.8 °F 30.18 in Calm   3.0 mph 72% 0.00 in 0 W/m2
06:24 22.2 °F 14.5 °F 30.18 in Calm   2.0 mph 72% 0.00 in 0 W/m2
06:30 22.0 °F 14.7 °F 30.19 in Calm     73% 0.00 in 0 W/m2
06:36 21.8 °F 14.5 °F 30.19 in WSW 1.0 mph 3.0 mph 73% 0.00 in 0 W/m2
06:42 21.5 °F 14.2 °F 30.19 in Calm     73% 0.00 in 0 W/m2
06:48 21.0 °F 13.7 °F 30.19 in Calm     73% 0.00 in 0 W/m2
06:54 20.5 °F 13.5 °F 30.19 in Calm     74% 0.00 in 0 W/m2
07:00 19.9 °F 12.9 °F 30.19 in Calm     74% 0.00 in 0 W/m2
07:06 19.4 °F 12.8 °F 30.19 in Calm     75% 0.00 in 0 W/m2
07:12 19.1 °F 12.8 °F 30.20 in Calm   1.0 mph 76% 0.00 in 0 W/m2
07:18 19.1 °F 13.1 °F 30.20 in Calm   1.0 mph 77% 0.00 in 5 W/m2
07:24 19.1 °F 13.1 °F 30.20 in Calm   1.0 mph 77% 0.00 in 7 W/m2
07:30 19.2 °F 13.5 °F 30.20 in Calm     78% 0.00 in 9 W/m2
07:32 19.2 °F 13.5 °F 30.20 in Calm   1.0 mph 78% 0.00 in 9 W/m2
07:38 19.5 °F 13.8 °F 30.20 in Calm   1.0 mph 78% 0.00 in 11 W/m2
07:44 19.7 °F 14.0 °F 30.21 in WSW 1.0 mph 2.0 mph 78% 0.00 in 14 W/m2
07:50 19.9 °F 14.1 °F 30.21 in WSW 1.0 mph 1.0 mph 78% 0.00 in 25 W/m2
07:56 20.3 °F 14.5 °F 30.21 in WSW 1.0 mph 1.0 mph 78% 0.00 in 47 W/m2
08:02 20.5 °F 14.7 °F 30.22 in West 1.0 mph 1.0 mph 78% 0.00 in 42 W/m2
08:08 21.0 °F 14.9 °F 30.22 in West 1.0 mph 1.0 mph 77% 0.00 in 69 W/m2
08:14 21.5 °F 15.4 °F 30.22 in West 1.0 mph 5.0 mph 77% 0.00 in 93 W/m2
08:20 21.9 °F 15.5 °F 30.22 in SW 1.0 mph 1.0 mph 76% 0.00 in 90 W/m2
08:26 22.6 °F 15.9 °F 30.23 in West 2.0 mph 3.0 mph 75% 0.00 in 109 W/m2
08:32 23.1 °F 16.0 °F 30.23 in West 1.0 mph 2.0 mph 74% 0.00 in 179 W/m2
08:38 23.5 °F 16.4 °F 30.23 in West 2.0 mph 3.0 mph 74% 0.00 in 105 W/m2
08:44 24.0 °F 16.6 °F 30.23 in West 2.0 mph 2.0 mph 73% 0.00 in 76 W/m2
08:50 24.5 °F 17.1 °F 30.23 in West 1.0 mph 2.0 mph 73% 0.00 in 218 W/m2
08:56 25.0 °F 17.6 °F 30.23 in WSW 1.0 mph 4.0 mph 73% 0.00 in 199 W/m2
09:02 25.5 °F 17.7 °F 30.24 in WSW 2.0 mph 2.0 mph 72% 0.00 in 132 W/m2
09:08 26.0 °F 18.2 °F 30.24 in WSW 1.0 mph 3.0 mph 72% 0.00 in 230 W/m2
09:14 26.4 °F 18.3 °F 30.24 in WSW 1.0 mph 4.0 mph 71% 0.00 in 207 W/m2
09:20 26.9 °F 18.4 °F 30.24 in WSW 1.0 mph 2.0 mph 70% 0.00 in 178 W/m2
09:26 27.6 °F 19.1 °F 30.24 in WSW 1.0 mph 2.0 mph 70% 0.00 in 250 W/m2
09:32 28.0 °F 19.1 °F 30.24 in WSW 1.0 mph 1.0 mph 69% 0.00 in 243 W/m2
09:38 28.8 °F 19.2 °F 30.24 in WNW 1.0 mph 3.0 mph 67% 0.00 in 311 W/m2
09:44 29.5 °F 19.5 °F 30.24 in NW 2.0 mph 3.0 mph 66% 0.00 in 309 W/m2
09:50 30.1 °F 19.7 °F 30.24 in NW 1.0 mph 1.0 mph 65% 0.00 in 462 W/m2
09:56 31.2 °F 20.1 °F 30.24 in NW 1.0 mph 1.0 mph 63% 0.00 in 483 W/m2
10:02 31.8 °F 20.6 °F 30.24 in WNW 1.0 mph 1.0 mph 63% 0.00 in 499 W/m2
10:08 32.1 °F 20.5 °F 30.25 in WNW 1.0 mph 1.0 mph 62% 0.00 in 519 W/m2
10:14 32.2 °F 20.6 °F 30.25 in NW 1.0 mph 2.0 mph 62% 0.00 in 533 W/m2
10:20 31.5 °F 19.6 °F 30.25 in WNW 2.0 mph 2.0 mph 61% 0.00 in 550 W/m2
10:26 32.2 °F 20.2 °F 30.25 in WNW 2.0 mph 4.0 mph 61% 0.06 in 563 W/m2
10:32 31.7 °F 20.2 °F 30.24 in WSW 2.0 mph 4.0 mph 62% 0.06 in 584 W/m2
10:38 32.0 °F 20.4 °F 30.25 in West 2.0 mph 4.0 mph 62% 0.04 in 598 W/m2
10:44 33.0 °F 20.2 °F 30.25 in WNW 2.0 mph 3.0 mph 59% 0.04 in 608 W/m2
10:50 33.7 °F 20.5 °F 30.24 in WNW 1.0 mph 3.0 mph 58% 0.07 in 628 W/m2
10:56 33.2 °F 20.4 °F 30.24 in WSW 1.0 mph 3.0 mph 59% 0.05 in 638 W/m2
11:02 33.6 °F 20.8 °F 30.25 in West 2.0 mph 4.0 mph 59% 0.05 in 652 W/m2
11:08 33.3 °F 20.5 °F 30.25 in WSW 2.0 mph 4.0 mph 59% 0.05 in 664 W/m2
11:14 34.1 °F 20.4 °F 30.25 in West 2.0 mph 2.0 mph 57% 0.05 in 671 W/m2
11:20 34.6 °F 20.9 °F 30.25 in WSW 1.0 mph 1.0 mph 57% 0.05 in 693 W/m2
11:26 35.2 °F 20.2 °F 30.24 in NNW 1.0 mph 3.0 mph 54% 0.16 in 703 W/m2
11:32 35.3 °F 19.4 °F 30.24 in WNW 3.0 mph 6.0 mph 52% 0.09 in 712 W/m2
11:38 35.2 °F 18.9 °F 30.24 in NW 3.0 mph 6.0 mph 51% 0.12 in 724 W/m2
11:44 35.1 °F 18.3 °F 30.24 in WNW 3.0 mph 5.0 mph 50% 0.09 in 729 W/m2
11:50 34.9 °F 18.6 °F 30.23 in West 3.0 mph 4.0 mph 51% 0.07 in 737 W/m2
11:56 35.1 °F 18.8 °F 30.23 in WNW 3.0 mph 4.0 mph 51% 0.10 in 744 W/m2
12:02 35.6 °F 19.2 °F 30.23 in West 2.0 mph 4.0 mph 51% 0.07 in 752 W/m2
12:08 36.2 °F 16.9 °F 30.23 in West 3.0 mph 5.0 mph 45% 0.10 in 761 W/m2
12:14 37.0 °F 16.0 °F 30.23 in NW 3.0 mph 5.0 mph 42% 0.08 in 765 W/m2
12:20 37.0 °F 16.5 °F 30.23 in NNW 2.0 mph 3.0 mph 43% 0.06 in 770 W/m2
12:26 37.1 °F 17.2 °F 30.23 in WNW 3.0 mph 6.0 mph 44% 0.07 in 777 W/m2
12:32 36.2 °F 15.8 °F 30.23 in WNW 4.0 mph 6.0 mph 43% 0.07 in 779 W/m2
12:38 36.3 °F 15.4 °F 30.23 in WNW 4.0 mph 6.0 mph 42% 0.06 in 782 W/m2
12:44 36.6 °F 16.2 °F 30.23 in West 3.0 mph 7.0 mph 43% 0.06 in 784 W/m2
12:50 37.3 °F 16.3 °F 30.23 in NW 3.0 mph 3.0 mph 42% 0.07 in 788 W/m2
12:56 36.9 °F 16.5 °F 30.23 in NW 3.0 mph 5.0 mph 43% 0.05 in 791 W/m2
13:02 36.7 °F 14.6 °F 30.23 in West 4.0 mph 5.0 mph 40% 0.04 in 793 W/m2
13:08 37.2 °F 15.1 °F 30.23 in WNW 4.0 mph 6.0 mph 40% 0.04 in 793 W/m2
13:14 36.8 °F 14.1 °F 30.22 in WNW 4.0 mph 8.0 mph 39% 0.06 in 795 W/m2
13:20 36.8 °F 13.5 °F 30.22 in WNW 5.0 mph 5.0 mph 38% 0.06 in 795 W/m2
13:26 36.7 °F 12.2 °F 30.22 in NW 5.0 mph 8.0 mph 36% 0.04 in 793 W/m2
13:32 37.3 °F 14.0 °F 30.22 in NNW 4.0 mph 4.0 mph 38% 0.00 in 791 W/m2
13:38 37.4 °F 12.8 °F 30.22 in WNW 4.0 mph 5.0 mph 36% 0.00 in 786 W/m2
13:44 37.4 °F 12.2 °F 30.21 in NNW 4.0 mph 7.0 mph 35% 0.00 in 782 W/m2
13:50 37.6 °F 13.6 °F 30.21 in WNW 4.0 mph 6.0 mph 37% 0.05 in 780 W/m2
13:56 37.6 °F 13.6 °F 30.21 in NNW 4.0 mph 6.0 mph 37% 0.05 in 777 W/m2
14:02 38.2 °F 13.6 °F 30.20 in NNW 4.0 mph 5.0 mph 36% 0.00 in 772 W/m2
14:08 38.5 °F 13.8 °F 30.20 in West 3.0 mph 5.0 mph 36% 0.00 in 768 W/m2
14:14 38.2 °F 12.9 °F 30.20 in WNW 3.0 mph 3.0 mph 35% 0.00 in 765 W/m2
14:20 38.4 °F 12.4 °F 30.20 in WNW 3.0 mph 3.0 mph 34% 0.00 in 758 W/m2
14:26 38.3 °F 12.3 °F 30.20 in WNW 4.0 mph 4.0 mph 34% 0.00 in 751 W/m2
14:32 38.2 °F 14.2 °F 30.20 in NW 3.0 mph 3.0 mph 37% 0.00 in 740 W/m2
14:38 38.7 °F 12.7 °F 30.19 in NNW 3.0 mph 6.0 mph 34% 0.00 in 733 W/m2
14:44 39.2 °F 13.1 °F 30.19 in WNW 3.0 mph 4.0 mph 34% 0.00 in 724 W/m2
14:50 39.3 °F 13.2 °F 30.19 in WNW 3.0 mph 3.0 mph 34% 0.00 in 717 W/m2
14:56 39.4 °F 13.3 °F 30.19 in NW 3.0 mph 3.0 mph 34% 0.00 in 707 W/m2
15:02 38.9 °F 13.5 °F 30.19 in WNW 4.0 mph 4.0 mph 35% 0.00 in 696 W/m2
15:08 39.1 °F 13.7 °F 30.18 in NNW 3.0 mph 6.0 mph 35% 0.00 in 686 W/m2
15:14 39.2 °F 13.8 °F 30.18 in WNW 3.0 mph 3.0 mph 35% 0.00 in 677 W/m2
15:20 39.6 °F 14.2 °F 30.18 in WNW 3.0 mph 4.0 mph 35% 0.00 in 663 W/m2
15:26 39.5 °F 14.7 °F 30.18 in SSW 3.0 mph 5.0 mph 36% 0.00 in 649 W/m2
15:32 40.3 °F 14.8 °F 30.18 in NW 2.0 mph 3.0 mph 35% 0.00 in 638 W/m2
15:38 39.4 °F 15.3 °F 30.18 in West 3.0 mph 9.0 mph 37% 0.00 in 622 W/m2
15:46 39.3 °F 13.9 °F 30.18 in WSW 4.0 mph 5.0 mph 35% 0.00 in 608 W/m2
15:52 39.0 °F 12.3 °F 30.18 in WSW 5.0 mph 5.0 mph 33% 0.00 in 591 W/m2
15:58 39.1 °F 13.1 °F 30.18 in SW 5.0 mph 7.0 mph 34% 0.00 in 580 W/m2
16:04 39.1 °F 12.4 °F 30.18 in West 4.0 mph 7.0 mph 33% 0.00 in 564 W/m2
16:10 39.2 °F 13.1 °F 30.18 in SSW 4.0 mph 5.0 mph 34% 0.00 in 548 W/m2
16:16 39.7 °F 14.2 °F 30.17 in WSW 4.0 mph 5.0 mph 35% 0.00 in 531 W/m2
16:22 40.1 °F 12.6 °F 30.17 in WSW 3.0 mph 3.0 mph 32% 0.00 in 517 W/m2
16:28 40.1 °F 12.6 °F 30.17 in WSW 3.0 mph 3.0 mph 32% 0.00 in 499 W/m2
16:34 40.2 °F 14.0 °F 30.17 in West 3.0 mph 5.0 mph 34% 0.00 in 485 W/m2
16:40 40.1 °F 12.6 °F 30.17 in NW 3.0 mph 4.0 mph 32% 0.00 in 469 W/m2
16:46 40.0 °F 11.0 °F 30.17 in NW 3.0 mph 4.0 mph 30% 0.00 in 452 W/m2
16:52 40.4 °F 12.1 °F 30.17 in NW 2.0 mph 2.0 mph 31% 0.00 in 436 W/m2
16:58 40.8 °F 10.9 °F 30.17 in WSW 1.0 mph 3.0 mph 29% 0.00 in 418 W/m2
17:04 40.6 °F 10.0 °F 30.17 in WNW 3.0 mph 5.0 mph 28% 0.00 in 401 W/m2
17:10 40.3 °F 9.7 °F 30.17 in WNW 3.0 mph 3.0 mph 28% 0.00 in 387 W/m2
17:16 40.4 °F 9.8 °F 30.17 in North 2.0 mph 6.0 mph 28% 0.00 in 371 W/m2
17:22 40.1 °F 11.1 °F 30.17 in WNW 3.0 mph 3.0 mph 30% 0.00 in 327 W/m2
17:28 39.9 °F 10.2 °F 30.17 in NNW 3.0 mph 3.0 mph 29% 0.00 in 292 W/m2
17:34 39.6 °F 11.4 °F 30.17 in NNW 2.0 mph 5.0 mph 31% 0.00 in 290 W/m2
17:40 39.4 °F 9.7 °F 30.17 in North 2.0 mph 3.0 mph 29% 0.00 in 258 W/m2
17:46 39.3 °F 11.1 °F 30.17 in North 2.0 mph 4.0 mph 31% 0.00 in 244 W/m2
17:52 39.3 °F 9.6 °F 30.17 in North 2.0 mph 2.0 mph 29% 0.00 in 218 W/m2
17:58 39.4 °F 10.5 °F 30.17 in WNW 1.0 mph 3.0 mph 30% 0.00 in 199 W/m2
18:04 39.0 °F 7.8 °F 30.17 in NNW 2.0 mph 4.0 mph 27% 0.00 in 148 W/m2
18:10 38.7 °F 9.9 °F 30.17 in NNW 2.0 mph 4.0 mph 30% 0.00 in 107 W/m2
18:16 38.2 °F 9.4 °F 30.17 in WNW 3.0 mph 4.0 mph 30% 0.00 in 91 W/m2
18:22 37.7 °F 8.2 °F 30.17 in NNW 2.0 mph 4.0 mph 29% 0.00 in 56 W/m2
18:28 37.3 °F 8.7 °F 30.17 in NNW 2.0 mph 4.0 mph 30% 0.00 in 44 W/m2
18:34 36.8 °F 9.7 °F 30.17 in NNW 1.0 mph 2.0 mph 32% 0.00 in 30 W/m2
18:40 36.5 °F 8.7 °F 30.17 in NNW 1.0 mph 3.0 mph 31% 0.00 in 21 W/m2
18:46 36.2 °F 9.1 °F 30.17 in North 2.0 mph 3.0 mph 32% 0.00 in 18 W/m2
18:52 35.8 °F 8.8 °F 30.17 in North 1.0 mph 1.0 mph 32% 0.00 in 14 W/m2
18:58 35.5 °F 9.2 °F 30.17 in North 1.0 mph 1.0 mph 33% 0.00 in 11 W/m2
19:04 35.1 °F 9.5 °F 30.17 in Calm   1.0 mph 34% 0.00 in 7 W/m2
19:10 34.6 °F 10.3 °F 30.17 in Calm     36% 0.00 in 0 W/m2
19:16 34.1 °F 9.9 °F 30.17 in Calm     36% 0.00 in 0 W/m2
19:22 33.6 °F 10.7 °F 30.17 in Calm   3.0 mph 38% 0.00 in 0 W/m2
19:28 32.7 °F 11.0 °F 30.17 in Calm   3.0 mph 40% 0.00 in 0 W/m2
19:34 32.5 °F 10.8 °F 30.17 in Calm   3.0 mph 40% 0.00 in 0 W/m2
19:46 31.4 °F 13.0 °F 30.17 in Calm   1.0 mph 46% 0.00 in 0 W/m2
19:52 30.7 °F 14.2 °F 30.17 in Calm     50% 0.00 in 0 W/m2
19:58 29.4 °F 15.2 °F 30.17 in Calm     55% 0.00 in 0 W/m2
20:04 28.8 °F 12.5 °F 30.17 in Calm     50% 0.00 in 0 W/m2
20:10 28.3 °F 12.5 °F 30.17 in Calm     51% 0.00 in 0 W/m2
20:16 27.7 °F 11.9 °F 30.18 in Calm     51% 0.00 in 0 W/m2
20:22 27.2 °F 11.4 °F 30.18 in Calm     51% 0.00 in 0 W/m2
20:28 26.7 °F 11.8 °F 30.18 in Calm     53% 0.00 in 0 W/m2
20:34 26.2 °F 12.2 °F 30.18 in Calm     55% 0.00 in 0 W/m2
20:40 25.8 °F 12.2 °F 30.18 in Calm     56% 0.00 in 0 W/m2
20:46 25.5 °F 13.1 °F 30.18 in Calm     59% 0.00 in 0 W/m2
20:52 25.1 °F 13.5 °F 30.18 in Calm     61% 0.00 in 0 W/m2
20:58 24.6 °F 13.4 °F 30.18 in Calm     62% 0.00 in 0 W/m2
21:04 24.5 °F 13.7 °F 30.18 in Calm     63% 0.00 in 0 W/m2
21:10 24.4 °F 13.2 °F 30.18 in Calm     62% 0.00 in 0 W/m2
21:16 24.5 °F 13.7 °F 30.18 in Calm     63% 0.00 in 0 W/m2
21:22 24.1 °F 13.3 °F 30.17 in Calm     63% 0.00 in 0 W/m2
21:28 23.6 °F 12.8 °F 30.17 in Calm     63% 0.00 in 0 W/m2
21:34 23.3 °F 11.8 °F 30.18 in Calm     61% 0.00 in 0 W/m2
21:40 23.1 °F 12.0 °F 30.18 in Calm     62% 0.00 in 0 W/m2
21:46 22.8 °F 12.4 °F 30.18 in Calm     64% 0.00 in 0 W/m2
21:52 22.5 °F 12.5 °F 30.18 in Calm     65% 0.00 in 0 W/m2
21:58 22.6 °F 12.6 °F 30.17 in Calm     65% 0.00 in 0 W/m2
22:04 22.3 °F 11.6 °F 30.17 in Calm     63% 0.00 in 0 W/m2
22:10 21.7 °F 11.0 °F 30.17 in Calm     63% 0.00 in 0 W/m2
22:16 21.3 °F 11.0 °F 30.17 in Calm     64% 0.00 in 0 W/m2
22:22 21.2 °F 10.9 °F 30.18 in Calm     64% 0.00 in 0 W/m2
22:28 21.0 °F 11.4 °F 30.18 in Calm     66% 0.00 in 0 W/m2
22:34 20.8 °F 11.2 °F 30.18 in Calm     66% 0.00 in 0 W/m2
22:40 20.7 °F 11.1 °F 30.18 in Calm     66% 0.00 in 0 W/m2
22:46 21.0 °F 11.8 °F 30.18 in Calm     67% 0.00 in 0 W/m2
22:52 20.6 °F 11.4 °F 30.18 in Calm     67% 0.00 in 0 W/m2
22:58 20.4 °F 11.2 °F 30.17 in Calm     67% 0.00 in 0 W/m2
23:04 20.1 °F 10.9 °F 30.17 in Calm     67% 0.00 in 0 W/m2
23:12 19.7 °F 10.8 °F 30.18 in Calm     68% 0.00 in 0 W/m2
23:18 19.8 °F 10.9 °F 30.17 in Calm     68% 0.00 in 0 W/m2
23:24 19.7 °F 10.5 °F 30.17 in Calm     67% 0.00 in 0 W/m2
23:30 19.5 °F 10.6 °F 30.17 in Calm     68% 0.00 in 0 W/m2
23:36 19.3 °F 10.8 °F 30.17 in Calm     69% 0.00 in 0 W/m2
23:42 19.1 °F 10.6 °F 30.18 in Calm     69% 0.00 in 0 W/m2
23:48 19.2 °F 10.7 °F 30.17 in Calm     69% 0.00 in 0 W/m2
23:54 19.2 °F 10.0 °F 30.17 in Calm     67% 0.00 in 0 W/m2
Country Meadow, Clay, NY, USA
Compliments of Weather Underground - 2 mb